Time;durP1;ratioP1;P1;durP2;ratioP2;P2;SDS_P1;SDS_P2;PMS_P1;PMS_P2;Temp;Humidity;BMP_temperature;BMP_pressure;BME280_temperature;BME280_humidity;BME280_pressure;Samples;Min_cycle;Max_cycle;Signal;HPM_P1;HPM_P2
2022/07/24 00:00:29;;;;;;;3.87;3.27;;;;;;;17.31;69.27;101820.09;4975182;28;20100;-85
2022/07/24 00:02:54;;;;;;;3.60;3.07;;;;;;;17.28;69.44;101810.50;4974563;28;20027;-85
2022/07/24 00:05:19;;;;;;;4.33;3.10;;;;;;;17.27;69.26;101819.31;4975025;28;20464;-86
2022/07/24 00:07:44;;;;;;;4.00;3.10;;;;;;;17.26;69.43;101824.59;4975262;28;20064;-85
2022/07/24 00:10:11;;;;;;;3.70;3.13;;;;;;;17.23;69.66;101817.66;4974228;28;20484;-85
2022/07/24 00:12:37;;;;;;;4.75;3.45;;;;;;;17.21;69.57;101821.25;4975338;28;20157;-85
2022/07/24 00:15:03;;;;;;;4.30;3.20;;;;;;;17.18;69.61;101822.16;4974943;28;20031;-86
2022/07/24 00:17:28;;;;;;;5.47;3.60;;;;;;;17.14;69.62;101816.16;4974443;28;20037;-86
2022/07/24 00:19:54;;;;;;;4.00;3.13;;;;;;;17.11;69.96;101810.97;4974673;28;20023;-86
2022/07/24 00:22:19;;;;;;;3.87;3.27;;;;;;;17.08;70.07;101804.97;4974606;28;20066;-86
2022/07/24 00:24:56;;;;;;;4.03;3.03;;;;;;;17.03;69.90;101799.00;4973723;28;20046;-86
2022/07/24 00:27:22;;;;;;;3.20;2.85;;;;;;;16.99;70.14;101803.47;4974761;28;20026;-85
2022/07/24 00:29:47;;;;;;;3.70;3.10;;;;;;;16.96;70.37;101801.78;4974843;28;20158;-85
2022/07/24 00:32:13;;;;;;;3.90;3.03;;;;;;;16.94;70.33;101805.34;4973882;28;20368;-86
2022/07/24 00:34:38;;;;;;;3.67;3.07;;;;;;;16.92;70.36;101807.13;4974248;28;20353;-85
2022/07/24 00:37:13;;;;;;;3.80;3.00;;;;;;;16.89;70.66;101805.44;4973235;28;20216;-85
2022/07/24 00:39:47;;;;;;;3.80;2.90;;;;;;;16.91;70.38;101808.00;4974126;28;20023;-85
2022/07/24 00:42:12;;;;;;;4.55;3.30;;;;;;;16.89;70.41;101805.44;4974257;28;20073;-85
2022/07/24 00:44:37;;;;;;;4.13;2.93;;;;;;;16.88;70.40;101805.50;4973907;28;20495;-85
2022/07/24 00:47:03;;;;;;;3.43;2.90;;;;;;;16.86;70.55;101808.13;4973820;28;20383;-85
2022/07/24 00:49:28;;;;;;;4.20;3.10;;;;;;;16.83;70.84;101808.25;4974333;28;20050;-86
2022/07/24 00:51:54;;;;;;;4.37;3.23;;;;;;;16.85;70.75;101816.06;4973192;28;20034;-85
2022/07/24 00:54:22;;;;;;;4.07;3.10;;;;;;;16.79;70.86;101803.97;4974259;28;20031;-85
2022/07/24 00:56:56;;;;;;;5.00;3.00;;;;;;;16.77;70.63;101817.13;4974322;28;20278;-86
2022/07/24 00:59:23;;;;;;;4.40;2.92;;;;;;;16.71;71.19;101808.56;4973647;28;20371;-86
2022/07/24 01:01:49;;;;;;;3.00;2.70;;;;;;;16.70;71.08;101812.91;4974386;28;20438;-85
2022/07/24 01:04:15;;;;;;;4.80;2.95;;;;;;;16.68;71.07;101814.72;4974329;28;20031;-86
2022/07/24 01:06:42;;;;;;;3.75;2.90;;;;;;;16.65;71.45;101812.19;4973401;28;20031;-86
2022/07/24 01:09:08;;;;;;;3.30;2.83;;;;;;;16.63;71.36;101803.50;4974010;28;20035;-86
2022/07/24 01:11:33;;;;;;;3.03;2.70;;;;;;;16.60;71.40;101804.44;4973979;28;20029;-86
2022/07/24 01:14:10;;;;;;;3.53;2.63;;;;;;;16.57;71.24;101801.03;4973096;28;20054;-85
2022/07/24 01:16:38;;;;;;;3.05;2.70;;;;;;;16.53;71.41;101795.00;4973989;28;20135;-85
2022/07/24 01:19:03;;;;;;;3.15;2.70;;;;;;;16.52;71.54;101794.16;4973369;28;20471;-85
2022/07/24 01:21:28;;;;;;;3.23;2.70;;;;;;;16.50;71.64;101795.06;4973765;28;20030;-86
2022/07/24 01:23:54;;;;;;;2.77;2.57;;;;;;;16.48;71.76;101792.50;4973714;28;20435;-85
2022/07/24 01:26:31;;;;;;;2.90;2.60;;;;;;;16.45;71.91;101784.72;4973298;28;20053;-85
2022/07/24 01:28:57;;;;;;;3.63;2.90;;;;;;;16.42;72.18;101783.94;4973736;28;20522;-85
2022/07/24 01:31:22;;;;;;;3.23;2.70;;;;;;;16.42;71.91;101774.31;4973937;28;20050;-86
2022/07/24 01:33:47;;;;;;;3.00;2.50;;;;;;;16.44;72.08;101779.50;4973621;28;20379;-86
2022/07/24 01:36:13;;;;;;;3.00;2.57;;;;;;;16.43;72.10;101781.28;4973341;28;20511;-86
2022/07/24 01:38:38;;;;;;;2.97;2.60;;;;;;;16.43;71.91;101776.06;4973575;28;20031;-86
2022/07/24 01:41:04;;;;;;;3.70;2.70;;;;;;;16.43;72.00;101781.28;4973048;28;20031;-86
2022/07/24 01:43:29;;;;;;;3.70;2.80;;;;;;;16.43;72.02;101786.53;4976093;28;20050;-85
2022/07/24 01:45:54;;;;;;;3.43;2.70;;;;;;;16.44;71.75;101790.00;4977434;28;20024;-86
2022/07/24 01:48:20;;;;;;;3.57;3.00;;;;;;;16.45;72.22;101786.47;4976875;28;20117;-86
2022/07/24 01:50:45;;;;;;;3.23;2.60;;;;;;;16.39;72.39;101778.75;4977740;28;20029;-86
2022/07/24 01:53:10;;;;;;;4.03;3.00;;;;;;;16.36;72.00;101784.94;4977587;28;20045;-86
2022/07/24 01:55:36;;;;;;;3.23;2.83;;;;;;;16.34;72.21;101774.50;4976853;28;20031;-86
2022/07/24 01:58:01;;;;;;;3.37;2.80;;;;;;;16.31;72.36;101776.34;4977382;28;20034;-86
2022/07/24 02:00:36;;;;;;;3.60;2.90;;;;;;;16.27;72.50;101777.31;4977151;28;20387;-86
2022/07/24 02:03:01;;;;;;;3.78;2.88;;;;;;;16.27;72.29;101779.94;4979965;28;20027;-86
2022/07/24 02:05:26;;;;;;;3.63;2.90;;;;;;;16.25;72.53;101776.47;4992545;28;20043;-86
2022/07/24 02:07:57;;;;;;;3.97;2.97;;;;;;;16.21;72.42;101780.94;4977307;28;20062;-85
2022/07/24 02:10:23;;;;;;;3.47;2.80;;;;;;;16.20;72.94;101777.47;4976588;28;20039;-86
2022/07/24 02:12:49;;;;;;;3.60;2.80;;;;;;;16.18;72.61;101778.38;4977072;28;20030;-85
2022/07/24 02:15:14;;;;;;;4.13;2.90;;;;;;;16.16;72.68;101781.06;4977384;28;20023;-86
2022/07/24 02:17:45;;;;;;;4.30;3.20;;;;;;;16.15;72.82;101787.19;4976884;28;20035;-86
2022/07/24 02:20:10;;;;;;;3.67;2.90;;;;;;;16.10;72.94;101778.56;4976862;28;20031;-86
2022/07/24 02:22:36;;;;;;;3.53;2.80;;;;;;;16.10;72.88;101782.94;4976295;28;20034;-86
2022/07/24 02:25:01;;;;;;;3.97;3.00;;;;;;;16.08;73.07;101785.63;4976742;28;20081;-86
2022/07/24 02:27:27;;;;;;;4.47;3.20;;;;;;;16.02;72.87;101777.88;4976857;28;20085;-85
2022/07/24 02:29:52;;;;;;;2.87;2.47;;;;;;;15.99;73.13;101775.34;4975646;28;20113;-85
2022/07/24 02:32:17;;;;;;;3.17;2.57;;;;;;;15.95;72.83;101771.09;4976423;28;20062;-86
2022/07/24 02:34:43;;;;;;;4.40;3.23;;;;;;;15.93;73.08;101773.72;4976251;28;20070;-86
2022/07/24 02:37:08;;;;;;;3.97;2.97;;;;;;;15.91;73.11;101770.28;4975913;28;20467;-86
2022/07/24 02:39:33;;;;;;;4.13;3.00;;;;;;;15.87;73.30;101773.88;4976705;28;20041;-86
2022/07/24 02:41:58;;;;;;;3.17;2.87;;;;;;;15.85;73.73;101773.91;4976485;28;20471;-85
2022/07/24 02:44:24;;;;;;;2.93;2.50;;;;;;;15.80;73.48;101775.72;4975563;28;20034;-86
2022/07/24 02:46:49;;;;;;;3.67;2.90;;;;;;;15.80;73.65;101777.50;4976085;28;20027;-86
2022/07/24 02:49:14;;;;;;;3.50;2.90;;;;;;;15.79;73.58;101787.09;4976702;28;20062;-86
2022/07/24 02:51:40;;;;;;;4.70;3.23;;;;;;;15.80;73.51;101788.81;4975488;28;20085;-86
2022/07/24 02:54:05;;;;;;;3.50;2.90;;;;;;;15.79;73.70;101783.63;4975991;28;20046;-85
2022/07/24 02:56:30;;;;;;;4.87;3.10;;;;;;;15.79;73.38;101787.09;4976330;28;20065;-86
2022/07/24 02:58:55;;;;;;;3.90;2.80;;;;;;;15.77;73.47;101782.78;4975244;28;20498;-87
2022/07/24 03:01:21;;;;;;;3.90;2.90;;;;;;;15.77;73.61;101788.03;4976201;28;20030;-85
2022/07/24 03:03:46;;;;;;;3.70;3.00;;;;;;;15.75;73.84;101780.22;4976438;28;20030;-86
2022/07/24 03:06:11;;;;;;;4.30;3.07;;;;;;;15.72;73.74;101788.13;4975436;28;20099;-86
2022/07/24 03:08:37;;;;;;;4.10;3.13;;;;;;;15.70;73.89;101782.06;4976319;28;20364;-86
2022/07/24 03:11:02;;;;;;;3.33;2.80;;;;;;;15.66;74.01;101783.91;4975832;28;20042;-86
2022/07/24 03:13:27;;;;;;;3.33;2.60;;;;;;;15.64;74.12;101776.97;4975557;28;20039;-85
2022/07/24 03:15:55;;;;;;;3.30;2.70;;;;;;;15.62;74.35;101770.91;4975971;28;20027;-86
2022/07/24 03:18:20;;;;;;;3.08;2.70;;;;;;;15.58;74.24;101773.59;4976035;28;20041;-86
2022/07/24 03:20:45;;;;;;;3.00;2.70;;;;;;;15.56;74.06;101774.53;4975634;28;20023;-85
2022/07/24 03:23:11;;;;;;;3.50;2.87;;;;;;;15.55;74.14;101778.03;4975674;28;20412;-86
2022/07/24 03:25:36;;;;;;;3.23;2.70;;;;;;;15.52;74.35;101778.09;4975969;28;20034;-86
2022/07/24 03:28:01;;;;;;;3.13;2.70;;;;;;;15.50;74.33;101772.91;4974745;28;20031;-85
2022/07/24 03:30:27;;;;;;;3.37;2.80;;;;;;;15.48;74.61;101771.22;4975501;28;20026;-86
2022/07/24 03:32:52;;;;;;;4.03;3.03;;;;;;;15.45;74.67;101769.50;4974668;28;20043;-85
2022/07/24 03:35:18;;;;;;;3.90;3.00;;;;;;;15.47;74.53;101769.50;4975325;28;20047;-86
2022/07/24 03:37:43;;;;;;;3.20;2.70;;;;;;;15.44;74.62;101779.13;4976057;28;20027;-86
2022/07/24 03:40:09;;;;;;;3.00;2.53;;;;;;;15.44;74.68;101780.84;4974986;28;20115;-86
2022/07/24 03:42:34;;;;;;;3.23;2.70;;;;;;;15.42;74.73;101780.91;4975081;28;20035;-86
2022/07/24 03:45:00;;;;;;;2.83;2.53;;;;;;;15.40;74.63;101782.69;4975064;28;20353;-86
2022/07/24 03:47:25;;;;;;;2.73;2.50;;;;;;;15.39;74.95;101780.94;4974887;28;20030;-85
2022/07/24 03:49:50;;;;;;;3.70;2.80;;;;;;;15.39;75.14;101780.94;4974996;28;20035;-85
2022/07/24 03:52:16;;;;;;;3.60;2.80;;;;;;;15.37;74.46;101772.25;4975247;28;20027;-85
2022/07/24 03:54:50;;;;;;;3.57;2.90;;;;;;;15.36;74.95;101767.97;4974908;28;20027;-86
2022/07/24 03:57:15;;;;;;;4.10;2.90;;;;;;;15.37;75.27;101766.19;4975470;28;20038;-86
2022/07/24 03:59:41;;;;;;;3.20;2.80;;;;;;;15.35;75.04;101762.75;4975530;28;20511;-86
2022/07/24 04:02:06;;;;;;;3.00;2.67;;;;;;;15.35;75.35;101765.34;4974412;28;20090;-86
2022/07/24 04:04:31;;;;;;;3.23;2.90;;;;;;;15.35;75.05;101766.22;4974987;28;20018;-85
2022/07/24 04:07:06;;;;;;;4.30;3.30;;;;;;;15.36;75.14;101769.69;4974283;28;20463;-86
2022/07/24 04:09:31;;;;;;;3.63;2.80;;;;;;;15.36;75.44;101769.69;4974450;28;20033;-86
2022/07/24 04:11:57;;;;;;;3.93;3.20;;;;;;;15.38;75.38;101770.53;4974777;28;20026;-85
2022/07/24 04:14:22;;;;;;;4.90;3.40;;;;;;;15.39;75.08;101767.03;4975105;28;20027;-85
2022/07/24 04:16:48;;;;;;;4.30;3.23;;;;;;;15.40;75.60;101769.59;4974285;28;20019;-86
2022/07/24 04:19:13;;;;;;;4.23;3.20;;;;;;;15.39;75.37;101761.78;4974857;28;20030;-86
2022/07/24 04:21:40;;;;;;;5.17;3.23;;;;;;;15.40;75.29;101763.53;4975044;28;20038;-85
2022/07/24 04:24:25;;;;;;;3.95;3.10;;;;;;;15.41;75.45;101762.63;4973951;28;20022;-85
2022/07/24 04:26:51;;;;;;;4.80;3.30;;;;;;;15.41;75.57;101770.47;4974725;28;20387;-85
2022/07/24 04:29:16;;;;;;;4.73;3.27;;;;;;;15.42;75.85;101775.66;4974451;28;20077;-85
2022/07/24 04:31:41;;;;;;;4.90;3.27;;;;;;;15.43;75.63;101779.13;4974753;28;20031;-86
2022/07/24 04:34:06;;;;;;;5.03;3.50;;;;;;;15.43;75.47;101779.13;4974342;28;20023;-85
2022/07/24 04:36:32;;;;;;;3.23;2.87;;;;;;;15.44;75.63;101775.63;4973366;28;20129;-85
2022/07/24 04:38:57;;;;;;;3.80;3.07;;;;;;;15.42;76.50;101780.06;4974391;28;20042;-85
2022/07/24 04:41:32;;;;;;;5.13;2.90;;;;;;;15.42;76.72;101790.50;4974834;28;20031;-86
2022/07/24 04:43:57;;;;;;;3.55;2.63;;;;;;;15.41;76.10;101788.78;4973646;28;20023;-85
2022/07/24 04:46:23;;;;;;;3.40;2.80;;;;;;;15.41;76.75;101780.94;4974502;28;20038;-86
2022/07/24 04:48:48;;;;;;;4.27;2.87;;;;;;;15.41;78.38;101787.00;4974499;28;20031;-86
2022/07/24 04:51:13;;;;;;;2.80;2.50;;;;;;;15.41;77.32;101783.56;4974130;28;20057;-86
2022/07/24 04:54:05;;;;;;;3.57;2.70;;;;;;;15.42;76.72;101787.91;4974548;28;20383;-86
2022/07/24 04:56:32;;;;;;;3.60;2.60;;;;;;;15.43;76.61;101792.22;4969806;28;20177;-86
2022/07/24 04:59:10;;;;;;;3.33;2.80;;;;;;;15.44;76.78;101780.84;4973339;28;20049;-86
2022/07/24 05:01:35;;;;;;;3.03;2.50;;;;;;;15.47;76.85;101779.94;4974336;28;20042;-86
2022/07/24 05:04:01;;;;;;;4.97;3.27;;;;;;;15.50;79.56;101780.75;4973971;28;20027;-86
2022/07/24 05:06:26;;;;;;;4.70;3.30;;;;;;;15.51;78.49;101782.47;4973467;28;20042;-86
2022/07/24 05:08:52;;;;;;;4.50;3.03;;;;;;;15.55;78.43;101783.25;4974196;28;20038;-86
2022/07/24 05:11:17;;;;;;;4.80;3.13;;;;;;;15.56;79.72;101780.59;4973539;28;20455;-86
2022/07/24 05:13:55;;;;;;;4.70;3.47;;;;;;;15.57;79.39;101771.00;4974207;28;20109;-86
2022/07/24 05:16:20;;;;;;;4.60;3.30;;;;;;;15.57;79.86;101774.47;4974146;28;20110;-87
2022/07/24 05:18:46;;;;;;;5.00;3.13;;;;;;;15.64;78.53;101767.34;4972963;28;20103;-86
2022/07/24 05:21:11;;;;;;;3.17;2.60;;;;;;;15.67;79.06;101769.91;4973988;28;20018;-86
2022/07/24 05:23:36;;;;;;;3.60;2.87;;;;;;;15.74;77.87;101778.50;4973912;28;20506;-86
2022/07/24 05:26:01;;;;;;;3.67;2.70;;;;;;;15.81;77.84;101780.06;4972629;28;20037;-86
2022/07/24 05:28:27;;;;;;;3.77;3.10;;;;;;;15.89;79.15;101788.63;4973980;28;20035;-85
2022/07/24 05:30:52;;;;;;;4.77;3.20;;;;;;;15.95;78.06;101776.31;4973456;28;20411;-86
2022/07/24 05:33:31;;;;;;;5.17;3.30;;;;;;;16.02;79.38;101790.97;4973102;28;20089;-85
2022/07/24 05:35:56;;;;;;;5.82;3.47;;;;;;;16.06;79.92;101785.63;4973209;28;20161;-85
2022/07/24 05:38:21;;;;;;;4.83;3.20;;;;;;;16.15;79.94;101800.28;4973950;28;20117;-86
2022/07/24 05:40:46;;;;;;;3.50;2.77;;;;;;;16.20;79.61;101797.53;4973794;28;20353;-85
2022/07/24 05:43:12;;;;;;;5.67;3.93;;;;;;;16.28;79.85;101794.75;4974820;28;20022;-90
2022/07/24 05:45:49;;;;;;;4.53;3.10;;;;;;;16.39;79.81;101797.09;4967036;28;20039;-94
2022/07/24 05:48:14;;;;;;;4.03;3.05;;;;;;;16.45;79.92;101792.56;4974382;28;20034;-92
2022/07/24 05:50:40;;;;;;;3.87;2.90;;;;;;;16.54;79.86;101799.34;4974491;28;20023;-90
2022/07/24 05:53:05;;;;;;;4.17;2.87;;;;;;;16.64;79.95;101798.22;4974765;28;20023;-89
2022/07/24 05:55:41;;;;;;;6.53;3.77;;;;;;;16.70;81.05;101791.94;4974062;28;20082;-91
2022/07/24 05:58:06;;;;;;;12.35;5.80;;;;;;;16.79;80.36;101793.47;4972223;28;20058;-90
2022/07/24 06:00:33;;;;;;;10.23;5.53;;;;;;;16.86;80.82;101787.16;4974385;28;20079;-90
2022/07/24 06:02:58;;;;;;;7.63;4.60;;;;;;;16.94;80.44;101798.31;4974483;28;20042;-89
2022/07/24 06:05:26;;;;;;;7.90;4.30;;;;;;;17.02;79.60;101798.13;4974913;28;20035;-90
2022/07/24 06:08:05;;;;;;;7.80;4.53;;;;;;;17.09;79.57;101802.31;4973870;28;20035;-90
2022/07/24 06:10:31;;;;;;;7.93;4.57;;;;;;;17.16;79.78;101800.41;4974565;28;20046;-90
2022/07/24 06:12:57;;;;;;;7.32;4.35;;;;;;;17.26;79.63;101807.09;4974474;28;20379;-90
2022/07/24 06:15:22;;;;;;;8.23;4.87;;;;;;;17.34;80.82;101811.25;4974750;28;20031;-90
2022/07/24 06:17:47;;;;;;;11.90;6.43;;;;;;;17.41;79.13;101803.19;4974827;28;20033;-90
2022/07/24 06:20:13;;;;;;;12.10;6.40;;;;;;;17.50;78.35;101802.06;4974423;28;20073;-91
2022/07/24 06:22:42;;;;;;;9.00;5.10;;;;;;;17.56;78.55;101814.16;4974755;28;20029;-90
2022/07/24 06:25:08;;;;;;;5.88;4.00;;;;;;;17.63;78.61;101810.44;4974503;28;20078;-91
2022/07/24 06:27:40;;;;;;;5.70;3.90;;;;;;;17.72;78.84;101809.31;4974624;28;20043;-91
2022/07/24 06:30:06;;;;;;;7.25;4.10;;;;;;;17.95;78.80;101808.59;4975041;28;20387;-85
2022/07/24 06:32:31;;;;;;;8.23;4.70;;;;;;;18.52;78.76;101809.41;4977128;28;20101;-83
2022/07/24 06:34:56;;;;;;;12.27;6.93;;;;;;;19.54;75.08;101802.34;4976182;28;20829;-87
2022/07/24 06:37:22;;;;;;;14.87;7.40;;;;;;;20.60;72.81;101804.34;4977411;28;20066;-88
2022/07/24 06:39:47;;;;;;;9.80;5.90;;;;;;;21.61;71.89;101810.53;4977576;28;20121;-92
2022/07/24 06:42:12;;;;;;;7.90;4.60;;;;;;;22.38;70.64;101813.88;4977499;28;20113;-89
2022/07/24 06:44:38;;;;;;;7.63;4.97;;;;;;;23.39;65.40;101816.69;4976531;28;20035;-89
2022/07/24 06:47:04;;;;;;;9.77;5.63;;;;;;;24.18;64.86;101805.25;4977196;28;20062;-89
2022/07/24 06:49:29;;;;;;;12.23;6.70;;;;;;;24.91;61.10;101810.75;4976883;28;20035;-89
2022/07/24 06:51:54;;;;;;;8.87;5.47;;;;;;;25.27;58.63;101806.78;4975031;28;20498;-88
2022/07/24 06:54:20;;;;;;;8.63;5.40;;;;;;;25.51;58.26;101803.56;4977087;28;20085;-89
2022/07/24 06:56:45;;;;;;;7.00;4.57;;;;;;;25.65;56.93;101810.63;4976785;28;20038;-88
2022/07/24 06:59:11;;;;;;;6.55;4.05;;;;;;;25.73;56.22;101803.00;4976410;28;20049;-87
2022/07/24 07:01:36;;;;;;;9.30;5.50;;;;;;;25.78;53.67;101798.25;4979359;28;20086;-96
2022/07/24 07:09:12;;;;;;;6.07;4.33;;;;;;;25.23;54.13;101786.66;5870573;23;20071;-96
2022/07/24 07:11:47;;;;;;;8.57;4.75;;;;;;;25.02;56.65;101786.19;5110165;23;20130;-96
2022/07/24 07:20:10;;;;;;;5.80;3.70;;;;;;;24.51;56.96;101798.03;6088328;23;20025;31
2022/07/24 07:22:35;;;;;;;6.65;3.92;;;;;;;24.40;57.64;101809.31;4974489;23;20138;-95
2022/07/24 07:25:10;;;;;;;5.60;3.67;;;;;;;24.34;55.51;101807.00;4957055;29;20055;-96
2022/07/24 07:27:36;;;;;;;7.32;4.47;;;;;;;24.16;56.72;101809.78;4958615;29;20031;-93
2022/07/24 07:30:04;;;;;;;4.40;3.50;;;;;;;24.10;56.85;101811.94;4958009;29;20123;-96
2022/07/24 07:32:29;;;;;;;4.88;3.45;;;;;;;24.16;57.50;101799.19;4958029;29;20476;-96
2022/07/24 07:34:54;;;;;;;4.30;3.00;;;;;;;24.27;57.83;101806.50;4961674;29;20024;-96
2022/07/24 07:37:19;;;;;;;3.57;2.80;;;;;;;24.33;58.79;101800.84;4965094;28;20488;-93
2022/07/24 07:39:45;;;;;;;3.00;2.70;;;;;;;24.31;53.59;101802.72;4959843;28;20038;-95
2022/07/24 07:42:10;;;;;;;4.13;3.10;;;;;;;24.28;55.23;101804.72;4966853;29;20024;-96
2022/07/24 07:44:36;;;;;;;4.47;3.00;;;;;;;24.23;56.27;101799.69;4961293;28;20051;-85
2022/07/24 07:47:01;;;;;;;4.80;3.20;;;;;;;24.26;55.39;101802.16;4955612;29;20055;-85
2022/07/24 07:49:27;;;;;;;4.07;3.10;;;;;;;24.17;55.19;101798.25;4956689;29;20479;-86
2022/07/24 07:51:52;;;;;;;;;;;;;;;24.16;52.74;101804.47;5012145;23;20116;-84
2022/07/24 07:54:18;;;;;;;3.45;2.90;;;;;;;24.24;55.90;101811.13;5013819;28;20277;-85
2022/07/24 07:56:43;;;;;;;3.17;2.60;;;;;;;24.30;53.13;101802.84;5013878;28;20049;-84
2022/07/24 07:59:09;;;;;;;3.63;2.80;;;;;;;24.16;52.79;101790.34;5014393;28;20276;-83
2022/07/24 08:01:35;;;;;;;2.90;2.60;;;;;;;24.12;52.51;101794.16;5013945;28;20144;-86
2022/07/24 08:04:00;;;;;;;2.70;2.50;;;;;;;24.13;51.70;101786.09;5014376;28;20109;-83
2022/07/24 08:06:28;;;;;;;3.03;2.60;;;;;;;24.14;52.19;101786.97;5014473;28;20513;-82
2022/07/24 08:08:54;;;;;;;2.40;2.20;;;;;;;24.16;49.61;101779.75;5012923;28;20101;-84
2022/07/24 08:11:19;;;;;;;2.07;1.97;;;;;;;24.21;49.12;101783.84;5014188;28;20148;-83
2022/07/24 08:13:44;;;;;;;1.93;1.83;;;;;;;24.30;53.59;101792.22;5013949;28;20030;-83
2022/07/24 08:16:09;;;;;;;1.90;1.80;;;;;;;24.43;53.42;101795.00;5013334;28;20037;-84
2022/07/24 08:18:35;;;;;;;1.80;1.70;;;;;;;24.58;52.96;101793.22;5009230;28;20027;-82
2022/07/24 08:21:00;;;;;;;1.93;1.70;;;;;;;24.66;51.45;101785.66;4995215;28;20459;-82
2022/07/24 08:23:26;;;;;;;1.90;1.80;;;;;;;24.72;51.38;101787.09;4993630;28;20022;-82
2022/07/24 08:25:51;;;;;;;1.70;1.60;;;;;;;24.79;51.56;101791.13;5007728;28;20118;-82
2022/07/24 08:28:17;;;;;;;1.80;1.70;;;;;;;24.82;47.93;101788.28;5013182;28;20420;-81
2022/07/24 08:30:42;;;;;;;3.20;1.90;;;;;;;24.88;51.06;101787.06;5014028;28;20044;-83
2022/07/24 08:33:07;;;;;;;1.97;1.87;;;;;;;24.96;49.57;101792.75;5013381;28;20037;-82
2022/07/24 08:35:32;;;;;;;2.30;1.80;;;;;;;25.07;51.99;101797.38;5013325;28;20041;-83
2022/07/24 08:37:58;;;;;;;1.70;1.60;;;;;;;25.24;49.39;101805.16;5000013;28;20034;-88
2022/07/24 08:40:23;;;;;;;2.50;2.30;;;;;;;25.24;46.83;101802.50;4995753;28;20018;-93
2022/07/24 08:42:49;;;;;;;2.03;1.92;;;;;;;25.25;50.41;101792.72;4994703;28;20030;-94
2022/07/24 08:45:15;;;;;;;1.80;1.70;;;;;;;25.38;51.51;101798.13;4995652;28;20066;-95
2022/07/24 08:47:41;;;;;;;1.92;1.80;;;;;;;25.41;49.51;101795.28;4996317;28;20105;-87
2022/07/24 08:50:08;;;;;;;2.20;2.00;;;;;;;25.51;50.52;101795.56;4993561;28;20050;-86
2022/07/24 08:52:35;;;;;;;1.50;1.40;;;;;;;25.58;51.09;101786.25;4994230;28;20045;-87
2022/07/24 08:55:01;;;;;;;1.48;1.48;;;;;;;25.68;49.39;101782.03;4993886;28;20490;-86
2022/07/24 08:57:26;;;;;;;1.85;1.73;;;;;;;25.75;50.30;101779.84;5008526;28;20135;-86
2022/07/24 08:59:52;;;;;;;1.85;1.60;;;;;;;25.81;51.13;101786.56;5013061;28;20033;-87
2022/07/24 09:02:17;;;;;;;3.40;2.30;;;;;;;25.83;47.54;101782.00;5002460;28;20065;-85
2022/07/24 09:04:46;;;;;;;2.53;2.30;;;;;;;25.85;48.47;101783.59;5001209;28;20097;-86
2022/07/24 09:07:22;;;;;;;2.22;2.13;;;;;;;25.87;48.43;101781.69;4996854;28;20078;-85
2022/07/24 09:10:03;;;;;;;1.98;1.77;;;;;;;25.95;48.51;101783.84;4994265;28;20019;-87
2022/07/24 09:12:44;;;;;;;2.05;1.90;;;;;;;26.07;49.91;101790.16;5002071;28;20073;-87
2022/07/24 09:15:17;;;;;;;2.00;1.90;;;;;;;26.15;49.02;101773.72;4992681;28;20121;-87
2022/07/24 09:17:57;;;;;;;2.40;2.20;;;;;;;26.23;48.02;101774.09;5001053;28;20026;-87
2022/07/24 09:20:24;;;;;;;2.60;2.40;;;;;;;26.21;48.51;101771.50;4998844;28;20026;-87
2022/07/24 09:22:50;;;;;;;2.03;1.92;;;;;;;26.29;48.92;101773.66;5005151;28;20030;-87
2022/07/24 09:25:24;;;;;;;2.70;2.50;;;;;;;26.33;48.45;101766.31;5011835;28;20112;-88
2022/07/24 09:27:58;;;;;;;2.63;2.42;;;;;;;26.42;48.90;101763.03;5013047;28;20033;-89
2022/07/24 09:30:25;;;;;;;2.20;2.10;;;;;;;26.58;49.62;101765.47;5012175;28;20125;-88
2022/07/24 09:32:59;;;;;;;2.38;2.17;;;;;;;26.70;46.77;101761.13;4998176;28;20075;-88
2022/07/24 09:35:34;;;;;;;2.10;2.00;;;;;;;26.72;48.64;101761.88;5004769;28;20389;-89
2022/07/24 09:38:01;;;;;;;2.55;2.35;;;;;;;26.72;46.15;101761.00;4993687;28;20030;-88
2022/07/24 09:40:38;;;;;;;2.50;2.30;;;;;;;26.75;49.05;101758.97;4993123;28;20034;-87
2022/07/24 09:43:26;;;;;;;2.10;2.00;;;;;;;26.96;49.03;101756.66;4992759;28;20018;-88
2022/07/24 09:45:54;;;;;;;2.00;1.90;;;;;;;27.11;48.76;101756.53;5007758;28;20022;-87
2022/07/24 09:48:25;;;;;;;2.30;2.10;;;;;;;27.25;48.71;101758.22;4995126;28;20467;-88
2022/07/24 09:50:55;;;;;;;2.00;1.90;;;;;;;27.35;47.24;101742.41;4992797;28;20073;-88
2022/07/24 09:53:23;;;;;;;1.90;1.80;;;;;;;27.39;48.57;101752.75;4992662;28;20038;-88
2022/07/24 09:55:58;;;;;;;2.00;1.90;;;;;;;27.48;48.02;101747.72;4994816;28;20030;-87
2022/07/24 09:58:25;;;;;;;1.80;1.70;;;;;;;27.54;47.82;101747.25;5005033;28;20543;-89
2022/07/24 10:00:56;;;;;;;1.40;1.40;;;;;;;27.64;48.25;101737.63;5004987;28;20129;-87
2022/07/24 10:03:33;;;;;;;1.90;1.80;;;;;;;27.73;46.70;101741.44;4996263;28;20080;-88
2022/07/24 10:06:02;;;;;;;1.30;1.30;;;;;;;27.84;45.67;101744.13;5010138;28;20028;-89
2022/07/24 10:08:28;;;;;;;2.05;1.95;;;;;;;27.85;46.73;101729.84;4997353;28;20081;-87
2022/07/24 10:10:54;;;;;;;2.08;1.98;;;;;;;27.82;46.11;101734.56;5014964;28;20026;-86
2022/07/24 10:13:19;;;;;;;;;;;;;;;27.89;45.24;101735.78;4996568;28;20026;-87
2022/07/24 10:15:51;;;;;;;;;;;;;;;27.93;41.75;101723.94;4997420;28;19925;-87
2022/07/24 10:18:17;;;;;;;2.42;2.22;;;;;;;27.81;43.80;101725.69;5004826;28;19914;-86
2022/07/24 10:20:44;;;;;;;;;;;;;;;27.87;44.74;101717.25;4997500;28;20033;-87
2022/07/24 10:23:20;;;;;;;2.35;2.15;;;;;;;27.99;45.83;101720.78;4997893;28;20377;-85
2022/07/24 10:25:53;;;;;;;2.40;2.20;;;;;;;28.09;43.01;101720.97;5016038;28;20025;-87
2022/07/24 10:28:39;;;;;;;2.33;2.13;;;;;;;28.19;43.72;101718.47;5006833;28;20030;-87
2022/07/24 10:31:11;;;;;;;2.40;2.20;;;;;;;28.25;44.59;101715.31;5009660;28;20033;-87
2022/07/24 10:33:39;;;;;;;2.33;2.00;;;;;;;28.37;44.31;101713.53;5006798;28;20030;-80
2022/07/24 10:36:13;;;;;;;2.17;2.08;;;;;;;28.46;43.80;101709.28;5008889;28;20030;-88
2022/07/24 10:38:44;;;;;;;2.10;2.00;;;;;;;28.51;43.88;101712.44;5002875;28;20029;-88
2022/07/24 10:41:14;;;;;;;2.17;1.98;;;;;;;28.65;44.42;101706.00;5004809;28;20478;-89
2022/07/24 10:43:40;;;;;;;1.88;1.77;;;;;;;28.79;45.11;101704.94;4999100;28;20368;-87
2022/07/24 10:46:05;;;;;;;;;;;;;;;28.93;44.03;101707.38;5001316;28;20029;-88
2022/07/24 10:48:40;;;;;;;1.97;1.87;;;;;;;29.04;44.91;101706.53;5007669;28;19967;-88
2022/07/24 10:51:13;;;;;;;2.17;2.00;;;;;;;29.08;42.90;101702.59;4999511;28;21229;-87
2022/07/24 10:53:39;;;;;;;2.60;2.40;;;;;;;29.09;41.67;101698.13;5006063;28;20052;-88
2022/07/24 10:56:22;;;;;;;;;;;;;;;29.13;42.58;101692.41;5000701;28;20069;-87
2022/07/24 10:58:53;;;;;;;2.35;2.15;;;;;;;29.31;43.34;101694.53;5009625;28;19913;-87
2022/07/24 11:01:34;;;;;;;2.13;2.00;;;;;;;29.43;43.40;101685.53;5003542;28;20089;-88
2022/07/24 11:04:02;;;;;;;1.80;1.70;;;;;;;29.63;41.95;101690.22;5000705;28;20356;-89
2022/07/24 11:06:44;;;;;;;2.47;2.28;;;;;;;29.61;39.82;101682.31;5000636;28;20022;-88
2022/07/24 11:09:11;;;;;;;2.38;2.17;;;;;;;29.53;40.57;101690.97;4998895;28;20033;-88
2022/07/24 11:11:52;;;;;;;2.47;2.10;;;;;;;29.51;42.42;101684.91;4995847;28;20026;-88
2022/07/24 11:14:36;;;;;;;2.53;2.30;;;;;;;29.58;41.74;101691.44;5017024;23;20137;-89
2022/07/24 11:17:41;;;;;;;2.10;2.00;;;;;;;29.65;41.71;101686.41;4967426;28;20117;-89
2022/07/24 11:20:10;;;;;;;2.00;1.90;;;;;;;29.84;42.06;101688.41;4972673;28;20424;-89
2022/07/24 11:22:40;;;;;;;1.70;1.60;;;;;;;29.99;41.82;101685.44;4976104;28;20030;-88
2022/07/24 11:25:07;;;;;;;2.10;2.00;;;;;;;30.08;40.56;101681.97;4974346;28;20531;-87
2022/07/24 11:27:47;;;;;;;1.83;1.73;;;;;;;30.15;39.58;101684.97;4976374;28;20034;-89
2022/07/24 11:30:14;;;;;;;2.10;1.90;;;;;;;30.16;41.58;101676.81;4971782;28;20019;-87
2022/07/24 11:32:40;;;;;;;2.35;2.00;;;;;;;30.26;41.52;101679.53;4955768;28;20093;-86
2022/07/24 11:35:08;;;;;;;2.30;2.10;;;;;;;30.30;40.57;101680.13;4956464;28;20116;-87
2022/07/24 11:37:38;;;;;;;2.03;1.92;;;;;;;30.33;39.29;101669.16;4959350;28;20494;-87
2022/07/24 11:40:06;;;;;;;2.50;2.30;;;;;;;30.37;39.96;101670.56;4971271;28;20343;-89